createdAt,value
2022-12-15T00:00:45.814Z,110.90
2022-12-15T00:01:44.949Z,116.40
2022-12-15T00:02:45.342Z,111.70
2022-12-15T00:03:45.566Z,114.30
2022-12-15T00:04:45.627Z,116.10
2022-12-15T00:05:49.908Z,113.50
2022-12-15T00:06:46.131Z,111.90
2022-12-15T00:07:46.251Z,117.90
2022-12-15T00:08:46.506Z,111.50
2022-12-15T00:09:46.737Z,107.70
2022-12-15T00:10:46.992Z,114.90
2022-12-15T00:11:47.244Z,108.30
2022-12-15T00:12:47.519Z,107.90
2022-12-15T00:13:47.759Z,111.40
2022-12-15T00:14:48.013Z,115.90
2022-12-15T00:15:48.311Z,111.20
2022-12-15T00:16:48.536Z,110.50
2022-12-15T00:17:48.770Z,112.70
2022-12-15T00:18:49.022Z,110.60
2022-12-15T00:19:49.261Z,112.60
2022-12-15T00:20:49.544Z,111.20
2022-12-15T00:21:49.811Z,108.50
2022-12-15T00:22:50.069Z,110.30
2022-12-15T00:23:50.309Z,109.20
2022-12-15T00:24:50.570Z,112.60
2022-12-15T00:25:50.814Z,113.20
2022-12-15T00:26:51.071Z,110.00
2022-12-15T00:27:51.319Z,112.90
2022-12-15T00:28:51.564Z,111.60
2022-12-15T00:29:51.817Z,114.50
2022-12-15T00:30:54.063Z,110.40
2022-12-15T00:31:53.337Z,115.00
2022-12-15T00:32:52.496Z,113.80
2022-12-15T00:33:52.728Z,108.70
2022-12-15T00:34:52.977Z,114.10
2022-12-15T00:35:53.229Z,108.00
2022-12-15T00:36:53.509Z,106.50
2022-12-15T00:37:53.750Z,110.80
2022-12-15T00:38:54.852Z,110.80
2022-12-15T00:39:54.186Z,115.60
2022-12-15T00:40:54.423Z,114.50
2022-12-15T00:41:54.675Z,114.30
2022-12-15T00:42:54.928Z,110.60
2022-12-15T00:43:55.166Z,112.90
2022-12-15T00:44:55.427Z,111.30
2022-12-15T00:45:55.689Z,110.70
2022-12-15T00:46:56.044Z,108.40
2022-12-15T00:47:56.200Z,108.70
2022-12-15T00:48:56.452Z,113.20
2022-12-15T00:49:56.697Z,109.50
2022-12-15T00:50:56.956Z,109.90
2022-12-15T00:51:57.248Z,111.00
2022-12-15T00:52:57.389Z,106.10
2022-12-15T00:53:57.635Z,109.30
2022-12-15T00:54:57.886Z,110.90
2022-12-15T00:55:58.134Z,112.10
2022-12-15T00:56:58.403Z,115.60
2022-12-15T00:58:05.560Z,114.90
2022-12-15T00:58:58.881Z,112.50
2022-12-15T00:59:59.136Z,111.20
2022-12-15T01:00:59.371Z,111.30
2022-12-15T01:01:59.748Z,111.60
2022-12-15T01:03:00.096Z,110.20
2022-12-15T01:04:00.050Z,111.80
2022-12-15T01:05:00.339Z,114.10
2022-12-15T01:06:00.438Z,113.70
2022-12-15T01:07:00.701Z,110.70
2022-12-15T01:08:00.941Z,111.40
2022-12-15T01:09:01.200Z,112.70
2022-12-15T01:10:01.440Z,112.50
2022-12-15T01:11:01.699Z,112.30
2022-12-15T01:12:01.963Z,110.10
2022-12-15T01:13:02.206Z,112.80
2022-12-15T01:14:02.451Z,109.90
2022-12-15T01:15:02.707Z,114.00
2022-12-15T01:16:03.007Z,114.50
2022-12-15T01:17:03.159Z,113.80
2022-12-15T01:18:03.406Z,115.40
2022-12-15T01:19:03.645Z,110.80
2022-12-15T01:20:03.884Z,114.20
2022-12-15T01:21:04.144Z,114.60
2022-12-15T01:22:04.397Z,119.10
2022-12-15T01:23:04.652Z,114.60
2022-12-15T01:24:04.912Z,120.00
2022-12-15T01:25:05.173Z,116.60
2022-12-15T01:26:05.412Z,121.40
2022-12-15T01:27:05.676Z,115.50
2022-12-15T01:28:05.926Z,118.50
2022-12-15T01:29:06.165Z,115.30
2022-12-15T01:30:06.395Z,119.10
2022-12-15T01:31:06.698Z,115.30
2022-12-15T01:32:06.844Z,119.20
2022-12-15T01:33:07.091Z,112.40
2022-12-15T01:34:07.346Z,116.80
2022-12-15T01:35:07.600Z,117.00
2022-12-15T01:36:07.856Z,116.20
2022-12-15T01:37:08.146Z,112.50
2022-12-15T01:38:08.266Z,114.40
2022-12-15T01:39:08.526Z,122.80
2022-12-15T01:40:08.769Z,116.60
2022-12-15T01:41:09.036Z,114.30
2022-12-15T01:42:09.298Z,114.40
2022-12-15T01:43:09.543Z,114.70
2022-12-15T01:44:09.788Z,116.90
2022-12-15T01:45:10.072Z,122.30
2022-12-15T01:46:10.315Z,117.10
2022-12-15T01:47:10.659Z,119.20
2022-12-15T01:48:10.793Z,115.50
2022-12-15T01:49:11.062Z,116.50
2022-12-15T01:50:11.306Z,120.30
2022-12-15T01:51:11.572Z,116.30
2022-12-15T01:52:11.855Z,116.80
2022-12-15T01:53:12.016Z,115.10
2022-12-15T01:54:12.259Z,118.40
2022-12-15T01:55:12.519Z,116.40
2022-12-15T01:56:12.765Z,118.50
2022-12-15T01:57:13.039Z,117.40
2022-12-15T01:58:13.315Z,118.50
2022-12-15T01:59:13.569Z,117.60
2022-12-15T02:00:13.822Z,113.80
2022-12-15T02:01:14.187Z,114.10
2022-12-15T02:02:14.396Z,113.40
2022-12-15T02:03:14.627Z,114.40
2022-12-15T02:04:14.760Z,115.80
2022-12-15T02:05:15.045Z,113.80
2022-12-15T02:06:15.298Z,118.30
2022-12-15T02:07:15.581Z,113.10
2022-12-15T02:08:15.727Z,116.40
2022-12-15T02:09:15.983Z,113.50
2022-12-15T02:10:16.233Z,120.20
2022-12-15T02:11:16.482Z,114.20
2022-12-15T02:12:16.751Z,116.30
2022-12-15T02:13:17.010Z,118.20
2022-12-15T02:14:17.466Z,115.60
2022-12-15T02:15:17.453Z,112.80
2022-12-15T02:16:17.778Z,114.40
2022-12-15T02:17:17.909Z,118.10
2022-12-15T02:18:18.172Z,114.90
2022-12-15T02:19:18.433Z,119.80
2022-12-15T02:20:18.686Z,111.60
2022-12-15T02:21:18.941Z,113.90
2022-12-15T02:22:19.217Z,119.40
2022-12-15T02:23:19.465Z,112.20
2022-12-15T02:24:19.713Z,117.40
2022-12-15T02:25:19.968Z,119.80
2022-12-15T02:26:20.220Z,112.70
2022-12-15T02:27:20.478Z,115.60
2022-12-15T02:28:20.728Z,114.40
2022-12-15T02:29:20.974Z,117.30
2022-12-15T02:30:21.230Z,117.20
2022-12-15T02:31:21.514Z,115.80
2022-12-15T02:32:21.699Z,110.60
2022-12-15T02:33:21.951Z,115.70
2022-12-15T02:34:22.219Z,114.00
2022-12-15T02:35:22.470Z,114.30
2022-12-15T02:36:22.730Z,115.00
2022-12-15T02:37:23.010Z,111.90
2022-12-15T02:38:23.286Z,113.60
2022-12-15T02:39:23.425Z,109.00
2022-12-15T02:40:23.719Z,113.10
2022-12-15T02:41:23.857Z,117.50
2022-12-15T02:42:24.128Z,115.30
2022-12-15T02:43:24.378Z,116.40
2022-12-15T02:44:24.637Z,122.70
2022-12-15T02:45:24.913Z,117.60
2022-12-15T02:46:25.160Z,112.50
2022-12-15T02:47:25.418Z,117.40
2022-12-15T02:48:25.686Z,110.10
2022-12-15T02:49:25.935Z,110.70
2022-12-15T02:50:26.204Z,112.30
2022-12-15T02:51:26.453Z,109.60
2022-12-15T02:52:26.770Z,107.20
2022-12-15T02:53:26.957Z,116.20
2022-12-15T02:54:27.162Z,108.30
2022-12-15T02:55:27.408Z,109.80
2022-12-15T02:56:27.670Z,101.00
2022-12-15T02:57:27.932Z,104.50
2022-12-15T02:58:28.200Z,104.10
2022-12-15T02:59:28.452Z,97.70
2022-12-15T03:00:28.722Z,99.60
2022-12-15T03:01:29.200Z,99.70
2022-12-15T03:02:29.322Z,101.40
2022-12-15T03:03:29.941Z,109.10
2022-12-15T03:04:29.637Z,101.70
2022-12-15T03:05:29.901Z,100.90
2022-12-15T03:06:30.168Z,101.80
2022-12-15T03:07:30.435Z,98.30
2022-12-15T03:08:30.713Z,99.60
2022-12-15T03:09:30.956Z,97.90
2022-12-15T03:10:31.217Z,99.40
2022-12-15T03:11:31.459Z,95.00
2022-12-15T03:12:31.725Z,99.50
2022-12-15T03:13:32.397Z,98.30
2022-12-15T03:14:32.246Z,99.90
2022-12-15T03:15:35.508Z,100.40
2022-12-15T03:16:32.725Z,99.80
2022-12-15T03:17:32.957Z,100.70
2022-12-15T03:18:33.216Z,100.70
2022-12-15T03:19:33.466Z,98.10
2022-12-15T03:20:33.719Z,99.40
2022-12-15T03:21:33.977Z,100.70
2022-12-15T03:22:34.249Z,95.40
2022-12-15T03:23:34.643Z,101.20
2022-12-15T03:24:34.777Z,96.80
2022-12-15T03:25:35.019Z,95.50
2022-12-15T03:26:35.280Z,97.80
2022-12-15T03:27:35.558Z,96.40
2022-12-15T03:28:35.818Z,98.60
2022-12-15T03:29:36.070Z,97.20
2022-12-15T03:30:36.342Z,94.20
2022-12-15T03:31:36.666Z,99.30
2022-12-15T03:32:36.837Z,94.40
2022-12-15T03:33:37.108Z,98.10
2022-12-15T03:34:37.361Z,98.10
2022-12-15T03:35:37.888Z,96.50
2022-12-15T03:36:37.893Z,94.20
2022-12-15T03:37:38.059Z,97.50
2022-12-15T03:38:38.335Z,94.30
2022-12-15T03:39:38.585Z,95.60
2022-12-15T03:40:38.852Z,96.00
2022-12-15T03:41:39.101Z,96.80
2022-12-15T03:42:39.370Z,93.70
2022-12-15T03:43:39.661Z,93.60
2022-12-15T03:44:39.810Z,92.50
2022-12-15T03:45:40.106Z,91.70
2022-12-15T03:46:40.358Z,93.10
2022-12-15T03:47:40.624Z,92.00
2022-12-15T03:48:40.874Z,92.70
2022-12-15T03:49:41.119Z,96.20
2022-12-15T03:50:41.378Z,90.80
2022-12-15T03:51:41.609Z,95.40
2022-12-15T03:52:41.924Z,95.10
2022-12-15T03:53:42.072Z,97.90
2022-12-15T03:54:42.325Z,95.70
2022-12-15T03:55:42.576Z,97.60
2022-12-15T03:56:42.844Z,95.80
2022-12-15T03:57:43.109Z,94.50
2022-12-15T03:58:43.368Z,92.90
2022-12-15T03:59:43.612Z,97.20
2022-12-15T04:00:43.873Z,102.20
2022-12-15T04:01:44.190Z,103.30
2022-12-15T04:02:44.454Z,99.10
2022-12-15T04:03:44.630Z,103.30
2022-12-15T04:04:44.792Z,102.60
2022-12-15T04:05:45.049Z,101.60
2022-12-15T04:06:45.304Z,101.70
2022-12-15T04:07:45.584Z,100.90
2022-12-15T04:08:52.834Z,102.60
2022-12-15T04:09:46.091Z,99.60
2022-12-15T04:10:46.350Z,105.60
2022-12-15T04:11:52.544Z,102.40
2022-12-15T04:12:46.890Z,103.00
2022-12-15T04:13:47.131Z,102.70
2022-12-15T04:14:49.602Z,102.10
2022-12-15T04:15:47.658Z,100.90
2022-12-15T04:16:47.973Z,96.60
2022-12-15T04:17:48.119Z,97.60
2022-12-15T04:18:48.891Z,102.40
2022-12-15T04:19:48.585Z,95.90
2022-12-15T04:20:50.120Z,102.20
2022-12-15T04:21:49.081Z,105.90
2022-12-15T04:22:49.367Z,104.30
2022-12-15T04:23:49.616Z,102.10
2022-12-15T04:24:49.893Z,100.80
2022-12-15T04:25:50.148Z,98.50
2022-12-15T04:26:50.528Z,98.10
2022-12-15T04:27:50.707Z,103.40
2022-12-15T04:28:50.981Z,103.00
2022-12-15T04:29:51.235Z,97.80
2022-12-15T04:30:51.577Z,98.60
2022-12-15T04:31:51.722Z,97.90
2022-12-15T04:32:52.006Z,99.90
2022-12-15T04:33:52.262Z,170.00
2022-12-15T04:34:52.520Z,109.30
2022-12-15T04:35:52.774Z,137.00
2022-12-15T04:36:53.039Z,92.70
2022-12-15T04:37:53.311Z,124.30
2022-12-15T04:38:53.580Z,116.30
2022-12-15T04:39:53.841Z,103.70
2022-12-15T04:40:54.106Z,102.60
2022-12-15T04:41:54.376Z,104.10
2022-12-15T04:42:54.638Z,105.30
2022-12-15T04:43:54.894Z,108.00
2022-12-15T04:44:55.153Z,104.80
2022-12-15T04:45:55.429Z,119.90
2022-12-15T04:46:55.673Z,94.20
2022-12-15T04:47:55.943Z,113.50
2022-12-15T04:48:56.205Z,102.00
2022-12-15T04:49:56.598Z,113.80
2022-12-15T04:50:56.760Z,103.40
2022-12-15T04:51:57.012Z,93.70
2022-12-15T04:52:57.329Z,99.50
2022-12-15T04:53:57.463Z,94.80
2022-12-15T04:54:57.733Z,116.80
2022-12-15T04:55:57.994Z,104.50
2022-12-15T04:56:58.259Z,95.80
2022-12-15T04:57:58.529Z,99.40
2022-12-15T04:58:58.794Z,103.40
2022-12-15T04:59:59.039Z,115.00
2022-12-15T05:00:59.439Z,101.90
2022-12-15T05:01:59.731Z,127.80
2022-12-15T05:02:59.836Z,113.60
2022-12-15T05:03:59.973Z,99.60
2022-12-15T05:05:00.236Z,120.50
2022-12-15T05:06:00.490Z,106.10
2022-12-15T05:07:00.764Z,116.80
2022-12-15T05:08:01.034Z,135.40
2022-12-15T05:09:01.301Z,129.70
2022-12-15T05:10:03.375Z,116.40
2022-12-15T05:11:01.794Z,124.60
2022-12-15T05:12:02.047Z,138.10
2022-12-15T05:13:02.336Z,217.90
2022-12-15T05:14:02.594Z,127.30
2022-12-15T05:15:02.862Z,130.60
2022-12-15T05:16:03.160Z,113.50
2022-12-15T05:17:03.431Z,118.50
2022-12-15T05:18:03.634Z,156.90
2022-12-15T05:19:03.889Z,139.00
2022-12-15T05:20:04.151Z,218.10
2022-12-15T05:21:04.370Z,142.30
2022-12-15T05:22:04.638Z,118.30
2022-12-15T05:23:04.924Z,120.40
2022-12-15T05:24:05.188Z,116.90
2022-12-15T05:25:05.448Z,154.60
2022-12-15T05:26:05.716Z,136.80
2022-12-15T05:27:05.983Z,127.90
2022-12-15T05:28:06.246Z,119.90
2022-12-15T05:29:06.522Z,116.80
2022-12-15T05:30:06.773Z,147.30
2022-12-15T05:31:07.136Z,119.70
2022-12-15T05:32:07.288Z,185.60
2022-12-15T05:33:07.570Z,173.90
2022-12-15T05:34:07.828Z,213.20
2022-12-15T05:35:08.117Z,166.70
2022-12-15T05:36:08.416Z,132.90
2022-12-15T05:37:08.586Z,116.70
2022-12-15T05:38:08.852Z,116.60
2022-12-15T05:39:09.120Z,124.00
2022-12-15T05:40:09.372Z,132.90
2022-12-15T05:41:09.667Z,136.80
2022-12-15T05:42:09.849Z,127.20
2022-12-15T05:43:10.011Z,123.90
2022-12-15T05:44:10.264Z,136.60
2022-12-15T05:45:10.528Z,133.10
2022-12-15T05:46:10.824Z,133.70
2022-12-15T05:47:11.072Z,145.00
2022-12-15T05:48:11.355Z,149.80
2022-12-15T05:49:11.623Z,130.60
2022-12-15T05:50:11.885Z,134.30
2022-12-15T05:51:12.156Z,133.50
2022-12-15T05:52:12.429Z,143.70
2022-12-15T05:53:12.745Z,135.60
2022-12-15T05:54:12.931Z,139.60
2022-12-15T05:55:13.075Z,143.40
2022-12-15T05:56:13.339Z,130.10
2022-12-15T05:57:13.608Z,134.80
2022-12-15T05:58:13.877Z,127.90
2022-12-15T05:59:14.155Z,126.30
2022-12-15T06:00:14.426Z,127.00
2022-12-15T06:01:14.750Z,121.60
2022-12-15T06:02:14.979Z,129.30
2022-12-15T06:03:15.206Z,130.60
2022-12-15T06:04:15.371Z,122.70
2022-12-15T06:05:15.521Z,122.00
2022-12-15T06:06:15.792Z,118.70
2022-12-15T06:07:16.068Z,117.90
2022-12-15T06:08:16.359Z,112.80
2022-12-15T06:09:16.511Z,117.20
2022-12-15T06:10:16.777Z,115.20
2022-12-15T06:11:17.047Z,112.00
2022-12-15T06:12:17.299Z,113.60
2022-12-15T06:13:17.602Z,111.30
2022-12-15T06:14:17.755Z,110.60
2022-12-15T06:15:18.020Z,110.70
2022-12-15T06:16:18.291Z,111.10
2022-12-15T06:17:18.558Z,104.50
2022-12-15T06:18:18.833Z,110.70
2022-12-15T06:19:19.092Z,107.20
2022-12-15T06:20:19.348Z,102.70
2022-12-15T06:21:19.618Z,103.20
2022-12-15T06:22:19.871Z,104.70
2022-12-15T06:23:20.141Z,104.00
2022-12-15T06:24:20.399Z,101.10
2022-12-15T06:25:20.665Z,105.90
2022-12-15T06:26:20.922Z,103.00
2022-12-15T06:27:21.213Z,155.70
2022-12-15T06:28:21.363Z,111.00
2022-12-15T06:29:21.633Z,125.90
2022-12-15T06:30:21.898Z,103.30
2022-12-15T06:31:22.211Z,102.80
2022-12-15T06:32:22.450Z,101.90
2022-12-15T06:33:22.742Z,96.60
2022-12-15T06:34:22.905Z,97.10
2022-12-15T06:35:23.162Z,102.50
2022-12-15T06:36:23.438Z,92.80
2022-12-15T06:37:23.732Z,95.60
2022-12-15T06:38:24.026Z,92.00
2022-12-15T06:39:24.192Z,88.00
2022-12-15T06:40:24.473Z,90.70
2022-12-15T06:41:24.747Z,91.50
2022-12-15T06:42:25.022Z,89.30
2022-12-15T06:43:25.314Z,93.40
2022-12-15T06:44:25.482Z,90.40
2022-12-15T06:45:25.749Z,87.10
2022-12-15T06:46:26.086Z,91.10
2022-12-15T06:47:26.258Z,91.50
2022-12-15T06:48:26.558Z,87.80
2022-12-15T06:49:26.718Z,89.70
2022-12-15T06:50:26.990Z,90.10
2022-12-15T06:51:27.240Z,89.30
2022-12-15T06:52:27.520Z,87.80
2022-12-15T06:53:27.955Z,87.10
2022-12-15T06:54:28.028Z,92.90
2022-12-15T06:55:28.274Z,94.90
2022-12-15T06:56:33.085Z,93.60
2022-12-15T06:57:29.738Z,93.00
2022-12-15T06:58:29.043Z,95.00
2022-12-15T06:59:29.204Z,89.10
2022-12-15T07:00:29.542Z,91.50
2022-12-15T07:01:29.836Z,92.90
2022-12-15T07:02:30.045Z,91.30
2022-12-15T07:03:30.758Z,91.10
2022-12-15T07:04:30.351Z,93.90
2022-12-15T07:05:30.538Z,89.00
2022-12-15T07:06:30.820Z,86.50
2022-12-15T07:07:31.102Z,93.50
2022-12-15T07:08:35.347Z,88.60
2022-12-15T07:09:32.619Z,104.10
2022-12-15T07:10:31.898Z,94.30
2022-12-15T07:11:32.185Z,89.80
2022-12-15T07:12:32.495Z,92.10
2022-12-15T07:13:33.193Z,99.50
2022-12-15T07:14:33.049Z,90.80
2022-12-15T07:15:33.208Z,89.30
2022-12-15T07:16:33.583Z,89.80
2022-12-15T07:17:33.675Z,90.50
2022-12-15T07:18:33.971Z,87.40
2022-12-15T07:19:34.236Z,85.40
2022-12-15T07:20:34.503Z,107.50
2022-12-15T07:21:34.784Z,88.20
2022-12-15T07:22:35.052Z,103.90
2022-12-15T07:23:53.639Z,101.00
2022-12-15T07:24:36.551Z,92.50
2022-12-15T07:25:35.793Z,88.70
2022-12-15T07:26:36.067Z,82.40
2022-12-15T07:27:36.332Z,85.50
2022-12-15T07:28:36.618Z,80.50
2022-12-15T07:29:36.879Z,83.50
2022-12-15T07:30:39.098Z,81.90
2022-12-15T07:31:37.399Z,80.40
2022-12-15T07:32:37.573Z,80.00
2022-12-15T07:33:37.863Z,77.60
2022-12-15T07:34:38.147Z,82.80
2022-12-15T07:35:39.302Z,80.90
2022-12-15T07:36:38.686Z,80.40
2022-12-15T07:37:38.957Z,83.80
2022-12-15T07:38:39.263Z,85.40
2022-12-15T07:39:39.511Z,81.50
2022-12-15T07:40:39.779Z,74.30
2022-12-15T07:41:40.037Z,79.50
2022-12-15T07:42:40.336Z,80.40
2022-12-15T07:43:40.646Z,80.70
2022-12-15T07:44:40.783Z,78.20
2022-12-15T07:45:41.084Z,89.20
2022-12-15T07:46:41.427Z,77.00
2022-12-15T07:47:41.570Z,90.90
2022-12-15T07:48:41.852Z,79.70
2022-12-15T07:49:42.095Z,107.30
2022-12-15T07:50:42.381Z,91.20
2022-12-15T07:51:42.511Z,91.60
2022-12-15T07:52:42.764Z,80.40
2022-12-15T07:53:43.031Z,79.30
2022-12-15T07:54:43.277Z,74.00
2022-12-15T07:56:06.445Z,71.20
2022-12-15T07:56:44.716Z,80.80
2022-12-15T07:57:44.887Z,89.10
2022-12-15T07:58:44.167Z,78.30
2022-12-15T07:59:44.281Z,89.90
2022-12-15T08:00:48.855Z,85.00
2022-12-15T08:01:44.883Z,78.00
2022-12-15T08:02:45.127Z,95.30
2022-12-15T08:03:46.202Z,95.60
2022-12-15T08:04:45.408Z,79.00
2022-12-15T08:05:45.639Z,83.00
2022-12-15T08:06:45.883Z,108.90
2022-12-15T08:07:46.106Z,85.30
2022-12-15T08:08:50.472Z,101.70
2022-12-15T08:09:46.535Z,70.80
2022-12-15T08:10:46.769Z,71.60
2022-12-15T08:11:46.993Z,77.80
2022-12-15T08:12:47.245Z,84.60
2022-12-15T08:14:04.369Z,77.10
2022-12-15T08:14:50.043Z,70.60
2022-12-15T08:15:47.791Z,77.40
2022-12-15T08:16:48.075Z,73.00
2022-12-15T08:17:48.213Z,78.80
2022-12-15T08:18:48.756Z,97.30
2022-12-15T08:19:48.711Z,83.50
2022-12-15T08:20:50.374Z,80.80
2022-12-15T08:21:49.103Z,75.10
2022-12-15T08:22:49.345Z,132.10
2022-12-15T08:23:49.600Z,105.90
2022-12-15T08:24:49.857Z,142.80
2022-12-15T08:25:50.092Z,82.20
2022-12-15T08:26:50.634Z,105.30
2022-12-15T08:27:50.551Z,136.70
2022-12-15T08:28:50.824Z,100.00
2022-12-15T08:29:52.237Z,81.00
2022-12-15T08:30:51.174Z,76.40
2022-12-15T08:31:51.492Z,82.60
2022-12-15T08:32:52.225Z,84.00
2022-12-15T08:33:51.831Z,108.40
2022-12-15T08:34:52.069Z,78.40
2022-12-15T08:35:57.112Z,78.50
2022-12-15T08:36:53.452Z,81.50
2022-12-15T08:37:52.669Z,85.40
2022-12-15T08:38:52.900Z,89.60
2022-12-15T08:39:53.114Z,79.10
2022-12-15T08:40:53.330Z,117.10
2022-12-15T08:41:53.531Z,79.20
2022-12-15T08:42:53.757Z,80.00
2022-12-15T08:43:53.954Z,72.70
2022-12-15T08:44:54.162Z,83.30
2022-12-15T08:45:54.403Z,104.00
2022-12-15T08:46:54.597Z,70.80
2022-12-15T08:47:54.774Z,99.70
2022-12-15T08:48:54.979Z,80.60
2022-12-15T08:49:55.181Z,80.40
2022-12-15T08:50:55.377Z,70.60
2022-12-15T08:51:55.566Z,71.10
2022-12-15T08:53:28.950Z,84.20
2022-12-15T08:53:56.922Z,102.00
2022-12-15T08:54:56.108Z,81.80
2022-12-15T08:55:56.285Z,94.60
2022-12-15T08:56:56.473Z,91.10
2022-12-15T08:57:56.649Z,110.20
2022-12-15T08:58:56.830Z,98.60
2022-12-15T08:59:57.021Z,78.40
2022-12-15T09:00:57.234Z,100.20
2022-12-15T09:01:57.528Z,179.50
2022-12-15T09:02:57.577Z,117.20
2022-12-15T09:03:57.763Z,96.10
2022-12-15T09:04:57.952Z,99.30
2022-12-15T09:05:58.113Z,104.40
2022-12-15T09:06:58.276Z,91.30
2022-12-15T09:08:03.073Z,99.60
2022-12-15T09:08:59.656Z,71.00
2022-12-15T09:09:58.799Z,76.60
2022-12-15T09:10:58.956Z,67.40
2022-12-15T09:11:59.085Z,85.70
2022-12-15T09:12:59.209Z,124.00
2022-12-15T09:13:59.329Z,128.60
2022-12-15T09:14:59.454Z,86.30
2022-12-15T09:16:09.403Z,72.80
2022-12-15T09:17:00.921Z,82.30
2022-12-15T09:17:59.860Z,74.00
2022-12-15T09:18:59.973Z,116.30
2022-12-15T09:20:00.046Z,90.90
2022-12-15T09:21:00.167Z,76.40
2022-12-15T09:22:00.267Z,81.80
2022-12-15T09:23:00.347Z,97.30
2022-12-15T09:24:00.711Z,71.00
2022-12-15T09:25:00.565Z,84.90
2022-12-15T09:26:00.665Z,75.60
2022-12-15T09:27:00.797Z,72.10
2022-12-15T09:28:00.883Z,72.60
2022-12-15T09:29:00.986Z,78.10
2022-12-15T09:30:01.094Z,76.00
2022-12-15T09:31:01.273Z,91.00
2022-12-15T09:32:01.537Z,84.00
2022-12-15T09:33:01.584Z,75.50
2022-12-15T09:34:01.661Z,90.70
2022-12-15T09:35:01.767Z,91.80
2022-12-15T09:36:01.834Z,94.80
2022-12-15T09:37:02.038Z,108.10
2022-12-15T09:38:02.091Z,72.40
2022-12-15T09:39:02.314Z,69.70
2022-12-15T09:40:02.396Z,79.30
2022-12-15T09:41:02.463Z,71.00
2022-12-15T09:42:02.635Z,80.80
2022-12-15T09:43:32.798Z,111.20
2022-12-15T09:44:03.931Z,75.00
2022-12-15T09:45:03.121Z,65.90
2022-12-15T09:46:03.198Z,67.40
2022-12-15T09:47:03.339Z,64.30
2022-12-15T09:48:03.488Z,72.90
2022-12-15T09:49:03.659Z,83.80
2022-12-15T09:50:03.822Z,86.00
2022-12-15T09:51:03.965Z,101.10
2022-12-15T09:52:09.003Z,98.20
2022-12-15T09:53:17.711Z,75.90
2022-12-15T09:54:06.078Z,72.20
2022-12-15T09:55:04.496Z,66.90
2022-12-15T09:56:04.520Z,69.40
2022-12-15T09:57:04.657Z,80.00
2022-12-15T09:58:10.659Z,73.40
2022-12-15T09:59:05.884Z,70.60
2022-12-15T10:00:05.037Z,96.70
2022-12-15T10:01:05.189Z,86.60
2022-12-15T10:02:05.443Z,105.90
2022-12-15T10:03:05.616Z,79.60
2022-12-15T10:04:12.169Z,98.60
2022-12-15T10:05:05.706Z,61.40
2022-12-15T10:06:22.298Z,60.90
2022-12-15T10:07:06.936Z,61.10
2022-12-15T10:08:06.047Z,104.70
2022-12-15T10:09:13.182Z,68.40
2022-12-15T10:10:06.296Z,59.40
2022-12-15T10:11:09.170Z,69.40
2022-12-15T10:12:06.503Z,62.90
2022-12-15T10:13:06.636Z,86.60
2022-12-15T10:14:06.784Z,60.20
2022-12-15T10:15:06.940Z,74.40
2022-12-15T10:16:07.195Z,72.20
2022-12-15T10:17:07.278Z,79.10
2022-12-15T10:18:07.363Z,89.80
2022-12-15T10:19:07.480Z,83.10
2022-12-15T10:20:07.619Z,72.90
2022-12-15T10:21:07.781Z,66.80
2022-12-15T10:22:07.929Z,79.50
2022-12-15T10:23:08.103Z,73.00
2022-12-15T10:24:08.405Z,73.50
2022-12-15T10:25:10.209Z,90.40
2022-12-15T10:26:08.527Z,75.80
2022-12-15T10:27:08.706Z,76.70
2022-12-15T10:28:08.845Z,73.00
2022-12-15T10:29:09.010Z,71.00
2022-12-15T10:30:09.273Z,75.10
2022-12-15T10:31:09.418Z,79.50
2022-12-15T10:32:09.508Z,80.40
2022-12-15T10:33:09.660Z,77.30
2022-12-15T10:34:09.830Z,69.90
2022-12-15T10:35:10.022Z,70.20
2022-12-15T10:36:10.197Z,72.30
2022-12-15T10:37:10.396Z,73.30
2022-12-15T10:38:10.563Z,82.30
2022-12-15T10:40:11.911Z,64.60
2022-12-15T10:41:11.108Z,69.30
2022-12-15T10:42:11.280Z,70.80
2022-12-15T10:43:11.480Z,71.90
2022-12-15T10:44:11.657Z,66.40
2022-12-15T10:45:11.850Z,65.20
2022-12-15T10:46:12.127Z,64.90
2022-12-15T10:47:12.219Z,67.90
2022-12-15T10:48:12.418Z,65.30
2022-12-15T10:49:12.582Z,63.50
2022-12-15T10:50:12.744Z,65.30
2022-12-15T10:51:12.919Z,61.50
2022-12-15T10:52:13.048Z,61.10
2022-12-15T10:53:13.166Z,66.30
2022-12-15T10:54:13.351Z,62.50
2022-12-15T10:55:13.415Z,60.90
2022-12-15T10:56:13.586Z,64.20
2022-12-15T10:57:13.750Z,59.60
2022-12-15T10:58:13.907Z,60.60
2022-12-15T10:59:14.036Z,59.40
2022-12-15T11:00:14.169Z,59.90
2022-12-15T11:01:14.353Z,58.90
2022-12-15T11:02:19.484Z,63.10
2022-12-15T11:03:15.616Z,60.40
2022-12-15T11:04:14.632Z,59.30
2022-12-15T11:05:14.750Z,60.50
2022-12-15T11:06:14.922Z,60.80
2022-12-15T11:07:15.087Z,64.50
2022-12-15T11:08:15.254Z,59.70
2022-12-15T11:09:15.429Z,61.00
2022-12-15T11:10:15.621Z,61.20
2022-12-15T11:11:15.723Z,63.10
2022-12-15T11:12:15.830Z,66.80
2022-12-15T11:13:15.925Z,64.10
2022-12-15T11:14:16.034Z,63.90
2022-12-15T11:15:16.148Z,63.30
2022-12-15T11:16:16.303Z,63.80
2022-12-15T11:17:16.430Z,65.20
2022-12-15T11:18:16.581Z,59.20
2022-12-15T11:19:16.729Z,63.80
2022-12-15T11:20:16.905Z,68.50
2022-12-15T11:21:17.090Z,66.00
2022-12-15T11:22:17.247Z,65.30
2022-12-15T11:23:17.432Z,65.30
2022-12-15T11:24:17.624Z,67.00
2022-12-15T11:25:17.786Z,68.70
2022-12-15T11:26:17.986Z,67.30
2022-12-15T11:27:18.179Z,65.40
2022-12-15T11:28:18.360Z,64.60
2022-12-15T11:29:18.548Z,63.10
2022-12-15T11:30:18.769Z,64.20
2022-12-15T11:31:18.973Z,63.00
2022-12-15T11:32:19.163Z,66.30
2022-12-15T11:33:19.341Z,65.90
2022-12-15T11:34:19.533Z,66.20
2022-12-15T11:35:19.722Z,66.80
2022-12-15T11:36:19.921Z,69.10
2022-12-15T11:37:20.137Z,65.10
2022-12-15T11:38:20.346Z,65.60
2022-12-15T11:39:20.474Z,71.60
2022-12-15T11:40:20.720Z,63.90
2022-12-15T11:41:23.291Z,62.00
2022-12-15T11:42:20.922Z,97.50
2022-12-15T11:43:21.131Z,130.80
2022-12-15T11:44:21.363Z,115.60
2022-12-15T11:45:21.525Z,83.20
2022-12-15T11:46:21.720Z,98.90
2022-12-15T11:47:21.893Z,72.30
2022-12-15T11:48:22.113Z,69.80
2022-12-15T11:49:22.159Z,67.10
2022-12-15T11:50:22.328Z,67.20
2022-12-15T11:51:22.532Z,81.80
2022-12-15T11:52:22.698Z,64.90
2022-12-15T11:53:22.949Z,72.70
2022-12-15T11:54:22.998Z,151.60
2022-12-15T11:56:24.343Z,70.80
2022-12-15T11:57:23.452Z,66.80
2022-12-15T11:58:23.559Z,58.90
2022-12-15T11:59:23.634Z,59.90
2022-12-15T12:00:23.829Z,54.70
2022-12-15T12:01:24.052Z,56.10
2022-12-15T12:02:24.257Z,59.00
2022-12-15T12:03:24.307Z,63.30
2022-12-15T12:04:24.347Z,68.30
2022-12-15T12:05:24.403Z,61.90
2022-12-15T12:06:24.613Z,54.60
2022-12-15T12:07:24.684Z,64.80
2022-12-15T12:08:24.903Z,75.50
2022-12-15T12:09:24.968Z,62.10
2022-12-15T12:10:25.173Z,70.00
2022-12-15T12:11:25.456Z,59.70
2022-12-15T12:12:25.487Z,55.60
2022-12-15T12:13:25.580Z,55.00
2022-12-15T12:14:25.672Z,55.50
2022-12-15T12:15:25.794Z,55.20
2022-12-15T12:16:25.875Z,56.60
2022-12-15T12:17:25.930Z,52.70
2022-12-15T12:18:26.126Z,54.80
2022-12-15T12:19:26.193Z,54.30
2022-12-15T12:20:26.336Z,54.50
2022-12-15T12:21:26.483Z,56.00
2022-12-15T12:22:26.619Z,51.50
2022-12-15T12:23:26.767Z,54.20
2022-12-15T12:24:26.894Z,55.40
2022-12-15T12:25:26.969Z,52.60
2022-12-15T12:26:27.092Z,51.00
2022-12-15T12:27:27.200Z,50.00
2022-12-15T12:28:27.336Z,46.90
2022-12-15T12:29:27.466Z,51.50
2022-12-15T12:30:27.542Z,46.60
2022-12-15T12:31:27.652Z,51.30
2022-12-15T12:32:27.750Z,48.20
2022-12-15T12:33:27.861Z,47.20
2022-12-15T12:34:27.954Z,47.70
2022-12-15T12:35:30.345Z,45.30
2022-12-15T12:36:29.118Z,47.40
2022-12-15T12:37:28.182Z,44.60
2022-12-15T12:38:28.971Z,44.70
2022-12-15T12:39:28.365Z,48.90
2022-12-15T12:40:28.455Z,50.00
2022-12-15T12:41:28.547Z,46.20
2022-12-15T12:42:28.631Z,49.50
2022-12-15T12:43:29.043Z,49.90
2022-12-15T12:44:28.838Z,48.80
2022-12-15T12:45:28.894Z,48.40
2022-12-15T12:46:29.010Z,48.20